sensor_id;sensor_type;location;lat;lon;timestamp;P1;durP1;ratioP1;P2;durP2;ratioP2
24048;SDS011;12250;50.956;4.746;2023-06-22T00:00:43;0.10;;;0.10;;
24048;SDS011;12250;50.956;4.746;2023-06-22T00:03:09;0.55;;;0.55;;
24048;SDS011;12250;50.956;4.746;2023-06-22T00:05:35;0.10;;;0.10;;
24048;SDS011;12250;50.956;4.746;2023-06-22T00:08:02;0.00;;;0.00;;
24048;SDS011;12250;50.956;4.746;2023-06-22T00:10:29;0.25;;;0.25;;
24048;SDS011;12250;50.956;4.746;2023-06-22T00:12:55;0.22;;;0.22;;
24048;SDS011;12250;50.956;4.746;2023-06-22T00:15:21;0.10;;;0.10;;
24048;SDS011;12250;50.956;4.746;2023-06-22T00:17:47;0.80;;;0.80;;
24048;SDS011;12250;50.956;4.746;2023-06-22T00:20:14;0.40;;;0.40;;
24048;SDS011;12250;50.956;4.746;2023-06-22T00:22:40;0.68;;;0.55;;
24048;SDS011;12250;50.956;4.746;2023-06-22T00:25:06;0.20;;;0.20;;
24048;SDS011;12250;50.956;4.746;2023-06-22T00:27:32;0.20;;;0.20;;
24048;SDS011;12250;50.956;4.746;2023-06-22T00:29:58;0.10;;;0.10;;
24048;SDS011;12250;50.956;4.746;2023-06-22T00:32:23;0.63;;;0.63;;
24048;SDS011;12250;50.956;4.746;2023-06-22T00:34:49;0.00;;;0.00;;
24048;SDS011;12250;50.956;4.746;2023-06-22T00:37:15;0.35;;;0.35;;
24048;SDS011;12250;50.956;4.746;2023-06-22T00:39:42;11.00;;;1.27;;
24048;SDS011;12250;50.956;4.746;2023-06-22T00:42:08;0.82;;;0.60;;
24048;SDS011;12250;50.956;4.746;2023-06-22T00:44:34;0.93;;;0.93;;
24048;SDS011;12250;50.956;4.746;2023-06-22T00:47:01;0.00;;;0.00;;
24048;SDS011;12250;50.956;4.746;2023-06-22T00:49:27;0.20;;;0.20;;
24048;SDS011;12250;50.956;4.746;2023-06-22T00:51:53;0.00;;;0.00;;
24048;SDS011;12250;50.956;4.746;2023-06-22T00:54:19;0.10;;;0.10;;
24048;SDS011;12250;50.956;4.746;2023-06-22T00:56:52;0.52;;;0.47;;
24048;SDS011;12250;50.956;4.746;2023-06-22T00:59:23;0.30;;;0.30;;
24048;SDS011;12250;50.956;4.746;2023-06-22T01:01:49;0.32;;;0.32;;
24048;SDS011;12250;50.956;4.746;2023-06-22T01:04:15;0.10;;;0.10;;
24048;SDS011;12250;50.956;4.746;2023-06-22T01:09:53;0.10;;;0.10;;
24048;SDS011;12250;50.956;4.746;2023-06-22T01:12:24;1.85;;;0.90;;
24048;SDS011;12250;50.956;4.746;2023-06-22T01:14:58;0.10;;;0.10;;
24048;SDS011;12250;50.956;4.746;2023-06-22T01:17:33;0.17;;;0.17;;
24048;SDS011;12250;50.956;4.746;2023-06-22T01:20:00;4.60;;;0.35;;
24048;SDS011;12250;50.956;4.746;2023-06-22T01:22:32;0.10;;;0.10;;
24048;SDS011;12250;50.956;4.746;2023-06-22T01:25:13;0.10;;;0.10;;
24048;SDS011;12250;50.956;4.746;2023-06-22T01:28:02;0.45;;;0.45;;
24048;SDS011;12250;50.956;4.746;2023-06-22T01:30:30;0.10;;;0.10;;
24048;SDS011;12250;50.956;4.746;2023-06-22T01:32:59;0.30;;;0.30;;
24048;SDS011;12250;50.956;4.746;2023-06-22T01:35:26;0.50;;;0.50;;
24048;SDS011;12250;50.956;4.746;2023-06-22T01:37:53;0.00;;;0.00;;
24048;SDS011;12250;50.956;4.746;2023-06-22T01:40:19;0.13;;;0.13;;
24048;SDS011;12250;50.956;4.746;2023-06-22T01:42:46;0.25;;;0.25;;
24048;SDS011;12250;50.956;4.746;2023-06-22T01:45:13;0.00;;;0.00;;
24048;SDS011;12250;50.956;4.746;2023-06-22T01:47:39;0.77;;;0.25;;
24048;SDS011;12250;50.956;4.746;2023-06-22T01:50:06;0.25;;;0.20;;
24048;SDS011;12250;50.956;4.746;2023-06-22T01:52:32;0.38;;;0.28;;
24048;SDS011;12250;50.956;4.746;2023-06-22T01:54:59;0.30;;;0.30;;
24048;SDS011;12250;50.956;4.746;2023-06-22T01:57:25;0.38;;;0.38;;
24048;SDS011;12250;50.956;4.746;2023-06-22T02:02:49;0.05;;;0.05;;
24048;SDS011;12250;50.956;4.746;2023-06-22T02:05:19;0.10;;;0.10;;
24048;SDS011;12250;50.956;4.746;2023-06-22T02:07:49;0.00;;;0.00;;
24048;SDS011;12250;50.956;4.746;2023-06-22T02:10:21;0.20;;;0.20;;
24048;SDS011;12250;50.956;4.746;2023-06-22T02:12:49;0.30;;;0.30;;
24048;SDS011;12250;50.956;4.746;2023-06-22T02:15:16;0.00;;;0.00;;
24048;SDS011;12250;50.956;4.746;2023-06-22T02:17:42;0.00;;;0.00;;
24048;SDS011;12250;50.956;4.746;2023-06-22T02:20:12;1.38;;;0.43;;
24048;SDS011;12250;50.956;4.746;2023-06-22T02:22:41;0.98;;;0.98;;
24048;SDS011;12250;50.956;4.746;2023-06-22T02:25:07;0.20;;;0.20;;
24048;SDS011;12250;50.956;4.746;2023-06-22T02:27:32;0.10;;;0.10;;
24048;SDS011;12250;50.956;4.746;2023-06-22T02:29:58;0.70;;;0.70;;
24048;SDS011;12250;50.956;4.746;2023-06-22T02:32:24;0.30;;;0.17;;
24048;SDS011;12250;50.956;4.746;2023-06-22T02:34:49;0.20;;;0.20;;
24048;SDS011;12250;50.956;4.746;2023-06-22T02:37:17;0.32;;;0.32;;
24048;SDS011;12250;50.956;4.746;2023-06-22T02:39:42;0.10;;;0.10;;
24048;SDS011;12250;50.956;4.746;2023-06-22T02:42:08;0.10;;;0.10;;
24048;SDS011;12250;50.956;4.746;2023-06-22T02:44:35;0.98;;;0.90;;
24048;SDS011;12250;50.956;4.746;2023-06-22T02:47:02;0.20;;;0.20;;
24048;SDS011;12250;50.956;4.746;2023-06-22T02:49:27;0.30;;;0.15;;
24048;SDS011;12250;50.956;4.746;2023-06-22T02:51:53;0.35;;;0.35;;
24048;SDS011;12250;50.956;4.746;2023-06-22T02:54:20;0.73;;;0.65;;
24048;SDS011;12250;50.956;4.746;2023-06-22T02:56:46;0.00;;;0.00;;
24048;SDS011;12250;50.956;4.746;2023-06-22T02:59:13;0.00;;;0.00;;
24048;SDS011;12250;50.956;4.746;2023-06-22T03:01:38;0.30;;;0.28;;
24048;SDS011;12250;50.956;4.746;2023-06-22T03:04:07;0.25;;;0.25;;
24048;SDS011;12250;50.956;4.746;2023-06-22T03:06:35;0.28;;;0.28;;
24048;SDS011;12250;50.956;4.746;2023-06-22T03:09:05;0.40;;;0.32;;
24048;SDS011;12250;50.956;4.746;2023-06-22T03:11:31;0.20;;;0.20;;
24048;SDS011;12250;50.956;4.746;2023-06-22T03:13:57;0.00;;;0.00;;
24048;SDS011;12250;50.956;4.746;2023-06-22T03:16:23;0.50;;;0.50;;
24048;SDS011;12250;50.956;4.746;2023-06-22T03:18:49;0.38;;;0.38;;
24048;SDS011;12250;50.956;4.746;2023-06-22T03:21:15;0.17;;;0.17;;
24048;SDS011;12250;50.956;4.746;2023-06-22T03:23:41;0.65;;;0.65;;
24048;SDS011;12250;50.956;4.746;2023-06-22T03:26:10;0.95;;;0.85;;
24048;SDS011;12250;50.956;4.746;2023-06-22T03:28:37;4.28;;;1.40;;
24048;SDS011;12250;50.956;4.746;2023-06-22T03:31:03;1.30;;;1.17;;
24048;SDS011;12250;50.956;4.746;2023-06-22T03:33:29;1.95;;;1.85;;
24048;SDS011;12250;50.956;4.746;2023-06-22T03:35:55;0.75;;;0.75;;
24048;SDS011;12250;50.956;4.746;2023-06-22T03:38:20;1.20;;;1.10;;
24048;SDS011;12250;50.956;4.746;2023-06-22T03:40:46;0.85;;;0.75;;
24048;SDS011;12250;50.956;4.746;2023-06-22T03:43:12;1.35;;;0.85;;
24048;SDS011;12250;50.956;4.746;2023-06-22T03:45:37;0.30;;;0.30;;
24048;SDS011;12250;50.956;4.746;2023-06-22T03:48:05;0.10;;;0.10;;
24048;SDS011;12250;50.956;4.746;2023-06-22T03:50:31;0.00;;;0.00;;
24048;SDS011;12250;50.956;4.746;2023-06-22T03:52:56;0.77;;;0.77;;
24048;SDS011;12250;50.956;4.746;2023-06-22T03:55:22;0.47;;;0.25;;
24048;SDS011;12250;50.956;4.746;2023-06-22T03:57:48;0.45;;;0.45;;
24048;SDS011;12250;50.956;4.746;2023-06-22T04:00:13;2.85;;;1.35;;
24048;SDS011;12250;50.956;4.746;2023-06-22T04:02:40;0.95;;;0.95;;
24048;SDS011;12250;50.956;4.746;2023-06-22T04:05:08;3.58;;;0.35;;
24048;SDS011;12250;50.956;4.746;2023-06-22T04:07:34;0.52;;;0.52;;
24048;SDS011;12250;50.956;4.746;2023-06-22T04:10:02;0.40;;;0.40;;
24048;SDS011;12250;50.956;4.746;2023-06-22T04:12:29;0.80;;;0.80;;
24048;SDS011;12250;50.956;4.746;2023-06-22T04:14:54;0.10;;;0.10;;
24048;SDS011;12250;50.956;4.746;2023-06-22T04:17:20;5.15;;;0.45;;
24048;SDS011;12250;50.956;4.746;2023-06-22T04:19:46;0.30;;;0.30;;
24048;SDS011;12250;50.956;4.746;2023-06-22T04:22:12;1.42;;;0.57;;
24048;SDS011;12250;50.956;4.746;2023-06-22T04:24:37;0.40;;;0.40;;
24048;SDS011;12250;50.956;4.746;2023-06-22T04:27:03;0.00;;;0.00;;
24048;SDS011;12250;50.956;4.746;2023-06-22T04:29:29;0.40;;;0.40;;
24048;SDS011;12250;50.956;4.746;2023-06-22T04:31:56;0.57;;;0.57;;
24048;SDS011;12250;50.956;4.746;2023-06-22T04:34:23;0.10;;;0.10;;
24048;SDS011;12250;50.956;4.746;2023-06-22T04:36:52;1.48;;;0.57;;
24048;SDS011;12250;50.956;4.746;2023-06-22T04:39:18;0.28;;;0.28;;
24048;SDS011;12250;50.956;4.746;2023-06-22T04:41:44;0.85;;;0.85;;
24048;SDS011;12250;50.956;4.746;2023-06-22T04:44:13;0.47;;;0.45;;
24048;SDS011;12250;50.956;4.746;2023-06-22T04:46:50;0.50;;;0.50;;
24048;SDS011;12250;50.956;4.746;2023-06-22T04:49:19;0.90;;;0.50;;
24048;SDS011;12250;50.956;4.746;2023-06-22T04:51:46;0.30;;;0.30;;
24048;SDS011;12250;50.956;4.746;2023-06-22T04:54:12;1.40;;;1.30;;
24048;SDS011;12250;50.956;4.746;2023-06-22T04:56:37;6.63;;;0.57;;
24048;SDS011;12250;50.956;4.746;2023-06-22T04:59:06;0.20;;;0.20;;
24048;SDS011;12250;50.956;4.746;2023-06-22T05:01:32;0.15;;;0.15;;
24048;SDS011;12250;50.956;4.746;2023-06-22T05:04:00;0.10;;;0.10;;
24048;SDS011;12250;50.956;4.746;2023-06-22T05:06:27;0.22;;;0.22;;
24048;SDS011;12250;50.956;4.746;2023-06-22T05:08:53;0.32;;;0.32;;
24048;SDS011;12250;50.956;4.746;2023-06-22T05:11:23;2.15;;;0.50;;
24048;SDS011;12250;50.956;4.746;2023-06-22T05:13:52;0.25;;;0.25;;
24048;SDS011;12250;50.956;4.746;2023-06-22T05:16:18;0.60;;;0.60;;
24048;SDS011;12250;50.956;4.746;2023-06-22T05:18:52;0.52;;;0.52;;
24048;SDS011;12250;50.956;4.746;2023-06-22T05:21:22;0.45;;;0.32;;
24048;SDS011;12250;50.956;4.746;2023-06-22T05:23:49;0.38;;;0.38;;
24048;SDS011;12250;50.956;4.746;2023-06-22T05:26:21;1.02;;;0.90;;
24048;SDS011;12250;50.956;4.746;2023-06-22T05:28:47;0.28;;;0.28;;
24048;SDS011;12250;50.956;4.746;2023-06-22T05:31:13;0.22;;;0.13;;
24048;SDS011;12250;50.956;4.746;2023-06-22T05:33:40;0.10;;;0.10;;
24048;SDS011;12250;50.956;4.746;2023-06-22T05:36:06;0.20;;;0.20;;
24048;SDS011;12250;50.956;4.746;2023-06-22T05:38:32;0.10;;;0.10;;
24048;SDS011;12250;50.956;4.746;2023-06-22T05:40:58;0.10;;;0.10;;
24048;SDS011;12250;50.956;4.746;2023-06-22T05:43:24;0.20;;;0.20;;
24048;SDS011;12250;50.956;4.746;2023-06-22T05:45:49;0.68;;;0.68;;
24048;SDS011;12250;50.956;4.746;2023-06-22T05:48:15;1.00;;;0.75;;
24048;SDS011;12250;50.956;4.746;2023-06-22T05:50:41;0.57;;;0.57;;
24048;SDS011;12250;50.956;4.746;2023-06-22T05:53:07;0.20;;;0.10;;
24048;SDS011;12250;50.956;4.746;2023-06-22T05:55:33;0.20;;;0.20;;
24048;SDS011;12250;50.956;4.746;2023-06-22T05:57:58;0.55;;;0.55;;
24048;SDS011;12250;50.956;4.746;2023-06-22T06:00:24;0.40;;;0.40;;
24048;SDS011;12250;50.956;4.746;2023-06-22T06:02:50;0.17;;;0.17;;
24048;SDS011;12250;50.956;4.746;2023-06-22T06:05:16;0.93;;;0.93;;
24048;SDS011;12250;50.956;4.746;2023-06-22T06:07:42;1.92;;;1.45;;
24048;SDS011;12250;50.956;4.746;2023-06-22T06:10:08;0.75;;;0.63;;
24048;SDS011;12250;50.956;4.746;2023-06-22T06:12:34;0.98;;;0.75;;
24048;SDS011;12250;50.956;4.746;2023-06-22T06:15:00;2.33;;;0.85;;
24048;SDS011;12250;50.956;4.746;2023-06-22T06:17:26;0.20;;;0.20;;
24048;SDS011;12250;50.956;4.746;2023-06-22T06:19:52;0.55;;;0.52;;
24048;SDS011;12250;50.956;4.746;2023-06-22T06:22:18;1.67;;;1.58;;
24048;SDS011;12250;50.956;4.746;2023-06-22T06:24:45;0.95;;;0.90;;
24048;SDS011;12250;50.956;4.746;2023-06-22T06:27:11;0.75;;;0.40;;
24048;SDS011;12250;50.956;4.746;2023-06-22T06:29:36;1.98;;;1.77;;
24048;SDS011;12250;50.956;4.746;2023-06-22T06:32:02;1.85;;;1.25;;
24048;SDS011;12250;50.956;4.746;2023-06-22T06:34:28;0.40;;;0.40;;
24048;SDS011;12250;50.956;4.746;2023-06-22T06:36:54;1.15;;;1.10;;
24048;SDS011;12250;50.956;4.746;2023-06-22T06:39:19;1.17;;;1.10;;
24048;SDS011;12250;50.956;4.746;2023-06-22T06:41:45;0.65;;;0.40;;
24048;SDS011;12250;50.956;4.746;2023-06-22T06:44:11;0.88;;;0.85;;
24048;SDS011;12250;50.956;4.746;2023-06-22T06:46:37;0.85;;;0.85;;
24048;SDS011;12250;50.956;4.746;2023-06-22T06:49:03;1.08;;;0.55;;
24048;SDS011;12250;50.956;4.746;2023-06-22T06:51:28;1.75;;;1.52;;
24048;SDS011;12250;50.956;4.746;2023-06-22T06:53:54;0.55;;;0.55;;
24048;SDS011;12250;50.956;4.746;2023-06-22T06:56:20;0.70;;;0.35;;
24048;SDS011;12250;50.956;4.746;2023-06-22T06:58:46;0.85;;;0.77;;
24048;SDS011;12250;50.956;4.746;2023-06-22T07:01:14;0.93;;;0.93;;
24048;SDS011;12250;50.956;4.746;2023-06-22T07:03:40;2.08;;;1.40;;
24048;SDS011;12250;50.956;4.746;2023-06-22T07:06:06;0.70;;;0.70;;
24048;SDS011;12250;50.956;4.746;2023-06-22T07:08:31;0.63;;;0.63;;
24048;SDS011;12250;50.956;4.746;2023-06-22T07:10:57;2.10;;;1.35;;
24048;SDS011;12250;50.956;4.746;2023-06-22T07:13:23;0.63;;;0.43;;
24048;SDS011;12250;50.956;4.746;2023-06-22T07:15:48;6.65;;;1.25;;
24048;SDS011;12250;50.956;4.746;2023-06-22T07:18:14;1.15;;;1.05;;
24048;SDS011;12250;50.956;4.746;2023-06-22T07:20:40;1.70;;;1.60;;
24048;SDS011;12250;50.956;4.746;2023-06-22T07:23:06;0.47;;;0.40;;
24048;SDS011;12250;50.956;4.746;2023-06-22T07:25:32;0.60;;;0.60;;
24048;SDS011;12250;50.956;4.746;2023-06-22T07:30:24;1.13;;;1.02;;
24048;SDS011;12250;50.956;4.746;2023-06-22T07:32:50;1.33;;;0.50;;
24048;SDS011;12250;50.956;4.746;2023-06-22T07:35:16;0.45;;;0.45;;
24048;SDS011;12250;50.956;4.746;2023-06-22T07:37:41;0.43;;;0.43;;
24048;SDS011;12250;50.956;4.746;2023-06-22T07:40:07;0.93;;;0.93;;
24048;SDS011;12250;50.956;4.746;2023-06-22T07:42:34;1.17;;;1.05;;
24048;SDS011;12250;50.956;4.746;2023-06-22T07:45:01;0.43;;;0.43;;
24048;SDS011;12250;50.956;4.746;2023-06-22T07:47:33;1.23;;;0.85;;
24048;SDS011;12250;50.956;4.746;2023-06-22T07:50:00;1.52;;;1.42;;
24048;SDS011;12250;50.956;4.746;2023-06-22T07:52:26;2.72;;;1.27;;
24048;SDS011;12250;50.956;4.746;2023-06-22T07:54:53;0.20;;;0.20;;
24048;SDS011;12250;50.956;4.746;2023-06-22T07:57:19;0.73;;;0.73;;
24048;SDS011;12250;50.956;4.746;2023-06-22T07:59:45;0.98;;;0.50;;
24048;SDS011;12250;50.956;4.746;2023-06-22T08:02:11;0.45;;;0.40;;
24048;SDS011;12250;50.956;4.746;2023-06-22T08:04:37;1.33;;;1.23;;
24048;SDS011;12250;50.956;4.746;2023-06-22T08:07:03;0.90;;;0.57;;
24048;SDS011;12250;50.956;4.746;2023-06-22T08:09:29;0.13;;;0.10;;
24048;SDS011;12250;50.956;4.746;2023-06-22T08:11:57;0.82;;;0.50;;
24048;SDS011;12250;50.956;4.746;2023-06-22T08:14:23;2.85;;;0.55;;
24048;SDS011;12250;50.956;4.746;2023-06-22T08:16:50;0.55;;;0.55;;
24048;SDS011;12250;50.956;4.746;2023-06-22T08:19:16;0.20;;;0.20;;
24048;SDS011;12250;50.956;4.746;2023-06-22T08:21:42;0.20;;;0.20;;
24048;SDS011;12250;50.956;4.746;2023-06-22T08:24:08;0.40;;;0.40;;
24048;SDS011;12250;50.956;4.746;2023-06-22T08:26:34;1.75;;;1.65;;
24048;SDS011;12250;50.956;4.746;2023-06-22T08:29:02;0.45;;;0.45;;
24048;SDS011;12250;50.956;4.746;2023-06-22T08:31:31;0.10;;;0.10;;
24048;SDS011;12250;50.956;4.746;2023-06-22T08:34:00;0.10;;;0.10;;
24048;SDS011;12250;50.956;4.746;2023-06-22T08:36:25;0.63;;;0.45;;
24048;SDS011;12250;50.956;4.746;2023-06-22T08:38:54;0.43;;;0.43;;
24048;SDS011;12250;50.956;4.746;2023-06-22T08:41:22;0.57;;;0.57;;
24048;SDS011;12250;50.956;4.746;2023-06-22T08:43:48;0.17;;;0.17;;
24048;SDS011;12250;50.956;4.746;2023-06-22T08:46:14;0.75;;;0.75;;
24048;SDS011;12250;50.956;4.746;2023-06-22T08:48:44;0.32;;;0.32;;
24048;SDS011;12250;50.956;4.746;2023-06-22T08:51:10;0.00;;;0.00;;
24048;SDS011;12250;50.956;4.746;2023-06-22T08:53:36;0.30;;;0.20;;
24048;SDS011;12250;50.956;4.746;2023-06-22T08:56:02;0.10;;;0.10;;
24048;SDS011;12250;50.956;4.746;2023-06-22T08:58:27;0.75;;;0.75;;
24048;SDS011;12250;50.956;4.746;2023-06-22T09:00:53;0.20;;;0.20;;
24048;SDS011;12250;50.956;4.746;2023-06-22T09:03:19;0.52;;;0.52;;
24048;SDS011;12250;50.956;4.746;2023-06-22T09:05:45;0.90;;;0.73;;
24048;SDS011;12250;50.956;4.746;2023-06-22T09:08:11;1.08;;;0.98;;
24048;SDS011;12250;50.956;4.746;2023-06-22T09:10:36;0.17;;;0.17;;
24048;SDS011;12250;50.956;4.746;2023-06-22T09:13:02;0.00;;;0.00;;
24048;SDS011;12250;50.956;4.746;2023-06-22T09:15:28;0.30;;;0.30;;
24048;SDS011;12250;50.956;4.746;2023-06-22T09:17:53;0.10;;;0.10;;
24048;SDS011;12250;50.956;4.746;2023-06-22T09:20:19;0.60;;;0.60;;
24048;SDS011;12250;50.956;4.746;2023-06-22T09:22:45;0.50;;;0.50;;
24048;SDS011;12250;50.956;4.746;2023-06-22T09:25:11;0.57;;;0.38;;
24048;SDS011;12250;50.956;4.746;2023-06-22T09:27:37;0.10;;;0.10;;
24048;SDS011;12250;50.956;4.746;2023-06-22T09:30:03;0.20;;;0.20;;
24048;SDS011;12250;50.956;4.746;2023-06-22T09:32:29;0.47;;;0.45;;
24048;SDS011;12250;50.956;4.746;2023-06-22T09:34:55;0.38;;;0.38;;
24048;SDS011;12250;50.956;4.746;2023-06-22T09:37:20;1.02;;;0.43;;
24048;SDS011;12250;50.956;4.746;2023-06-22T09:39:46;0.65;;;0.60;;
24048;SDS011;12250;50.956;4.746;2023-06-22T09:42:12;0.68;;;0.30;;
24048;SDS011;12250;50.956;4.746;2023-06-22T09:44:38;0.40;;;0.40;;
24048;SDS011;12250;50.956;4.746;2023-06-22T09:47:04;1.38;;;0.80;;
24048;SDS011;12250;50.956;4.746;2023-06-22T09:49:31;0.98;;;0.65;;
24048;SDS011;12250;50.956;4.746;2023-06-22T09:51:57;0.45;;;0.45;;
24048;SDS011;12250;50.956;4.746;2023-06-22T09:54:23;1.15;;;0.77;;
24048;SDS011;12250;50.956;4.746;2023-06-22T09:56:48;1.13;;;1.02;;
24048;SDS011;12250;50.956;4.746;2023-06-22T09:59:14;0.68;;;0.68;;
24048;SDS011;12250;50.956;4.746;2023-06-22T10:01:40;4.53;;;1.02;;
24048;SDS011;12250;50.956;4.746;2023-06-22T10:04:05;0.60;;;0.60;;
24048;SDS011;12250;50.956;4.746;2023-06-22T10:06:31;0.55;;;0.55;;
24048;SDS011;12250;50.956;4.746;2023-06-22T10:08:56;4.18;;;1.95;;
24048;SDS011;12250;50.956;4.746;2023-06-22T10:11:22;0.20;;;0.10;;
24048;SDS011;12250;50.956;4.746;2023-06-22T10:13:54;1.95;;;1.85;;
24048;SDS011;12250;50.956;4.746;2023-06-22T10:16:20;3.30;;;2.15;;
24048;SDS011;12250;50.956;4.746;2023-06-22T10:18:45;1.02;;;1.00;;
24048;SDS011;12250;50.956;4.746;2023-06-22T10:21:11;0.57;;;0.30;;
24048;SDS011;12250;50.956;4.746;2023-06-22T10:23:37;1.20;;;1.10;;
24048;SDS011;12250;50.956;4.746;2023-06-22T10:26:02;0.73;;;0.73;;
24048;SDS011;12250;50.956;4.746;2023-06-22T10:28:28;1.02;;;0.88;;
24048;SDS011;12250;50.956;4.746;2023-06-22T10:30:53;6.32;;;2.38;;
24048;SDS011;12250;50.956;4.746;2023-06-22T10:33:19;3.13;;;1.38;;
24048;SDS011;12250;50.956;4.746;2023-06-22T10:35:45;1.10;;;1.10;;
24048;SDS011;12250;50.956;4.746;2023-06-22T10:38:11;3.05;;;2.00;;
24048;SDS011;12250;50.956;4.746;2023-06-22T10:40:36;1.08;;;0.95;;
24048;SDS011;12250;50.956;4.746;2023-06-22T10:43:04;1.27;;;1.27;;
24048;SDS011;12250;50.956;4.746;2023-06-22T10:45:30;0.40;;;0.40;;
24048;SDS011;12250;50.956;4.746;2023-06-22T10:47:55;1.13;;;1.05;;
24048;SDS011;12250;50.956;4.746;2023-06-22T10:50:21;0.40;;;0.40;;
24048;SDS011;12250;50.956;4.746;2023-06-22T10:52:49;13.35;;;1.65;;
24048;SDS011;12250;50.956;4.746;2023-06-22T10:55:14;0.82;;;0.82;;
24048;SDS011;12250;50.956;4.746;2023-06-22T10:57:40;1.85;;;1.05;;
24048;SDS011;12250;50.956;4.746;2023-06-22T11:00:08;0.70;;;0.70;;
24048;SDS011;12250;50.956;4.746;2023-06-22T11:02:34;1.40;;;1.25;;
24048;SDS011;12250;50.956;4.746;2023-06-22T11:04:59;1.33;;;1.23;;
24048;SDS011;12250;50.956;4.746;2023-06-22T11:07:25;0.68;;;0.68;;
24048;SDS011;12250;50.956;4.746;2023-06-22T11:09:53;1.90;;;1.80;;
24048;SDS011;12250;50.956;4.746;2023-06-22T11:12:19;4.25;;;1.25;;
24048;SDS011;12250;50.956;4.746;2023-06-22T11:14:45;1.23;;;1.10;;
24048;SDS011;12250;50.956;4.746;2023-06-22T11:17:11;0.90;;;0.90;;
24048;SDS011;12250;50.956;4.746;2023-06-22T11:19:36;1.27;;;1.23;;
24048;SDS011;12250;50.956;4.746;2023-06-22T11:22:02;1.85;;;0.90;;
24048;SDS011;12250;50.956;4.746;2023-06-22T11:24:28;1.60;;;1.50;;
24048;SDS011;12250;50.956;4.746;2023-06-22T11:26:53;1.73;;;1.63;;
24048;SDS011;12250;50.956;4.746;2023-06-22T11:29:19;1.48;;;1.30;;
24048;SDS011;12250;50.956;4.746;2023-06-22T11:31:45;0.80;;;0.80;;
24048;SDS011;12250;50.956;4.746;2023-06-22T11:34:10;1.45;;;1.40;;
24048;SDS011;12250;50.956;4.746;2023-06-22T11:36:36;2.15;;;1.55;;
24048;SDS011;12250;50.956;4.746;2023-06-22T11:39:02;0.93;;;0.93;;
24048;SDS011;12250;50.956;4.746;2023-06-22T11:41:27;1.50;;;1.42;;
24048;SDS011;12250;50.956;4.746;2023-06-22T11:43:53;1.70;;;1.60;;
24048;SDS011;12250;50.956;4.746;2023-06-22T11:46:18;5.22;;;2.80;;
24048;SDS011;12250;50.956;4.746;2023-06-22T11:48:44;1.80;;;1.70;;
24048;SDS011;12250;50.956;4.746;2023-06-22T11:51:10;3.55;;;2.53;;
24048;SDS011;12250;50.956;4.746;2023-06-22T11:53:36;0.88;;;0.88;;
24048;SDS011;12250;50.956;4.746;2023-06-22T11:56:02;1.90;;;1.80;;
24048;SDS011;12250;50.956;4.746;2023-06-22T11:58:27;3.03;;;2.17;;
24048;SDS011;12250;50.956;4.746;2023-06-22T12:00:53;1.02;;;1.00;;
24048;SDS011;12250;50.956;4.746;2023-06-22T12:03:19;2.88;;;2.42;;
24048;SDS011;12250;50.956;4.746;2023-06-22T12:05:46;3.83;;;3.25;;
24048;SDS011;12250;50.956;4.746;2023-06-22T12:08:12;2.55;;;2.35;;
24048;SDS011;12250;50.956;4.746;2023-06-22T12:10:39;1.90;;;1.75;;
24048;SDS011;12250;50.956;4.746;2023-06-22T12:13:04;2.83;;;2.63;;
24048;SDS011;12250;50.956;4.746;2023-06-22T12:15:30;1.75;;;1.58;;
24048;SDS011;12250;50.956;4.746;2023-06-22T12:17:56;3.65;;;2.45;;
24048;SDS011;12250;50.956;4.746;2023-06-22T12:20:21;1.05;;;1.05;;
24048;SDS011;12250;50.956;4.746;2023-06-22T12:22:47;1.65;;;1.55;;
24048;SDS011;12250;50.956;4.746;2023-06-22T12:25:13;4.78;;;1.88;;
24048;SDS011;12250;50.956;4.746;2023-06-22T12:27:40;3.42;;;1.67;;
24048;SDS011;12250;50.956;4.746;2023-06-22T12:30:05;1.23;;;1.23;;
24048;SDS011;12250;50.956;4.746;2023-06-22T12:32:31;1.45;;;1.38;;
24048;SDS011;12250;50.956;4.746;2023-06-22T12:34:57;1.52;;;1.33;;
24048;SDS011;12250;50.956;4.746;2023-06-22T12:37:23;1.15;;;1.13;;
24048;SDS011;12250;50.956;4.746;2023-06-22T12:39:49;1.20;;;1.20;;
24048;SDS011;12250;50.956;4.746;2023-06-22T12:42:15;1.80;;;1.70;;
24048;SDS011;12250;50.956;4.746;2023-06-22T12:44:41;4.60;;;2.03;;
24048;SDS011;12250;50.956;4.746;2023-06-22T12:47:07;2.80;;;1.92;;
24048;SDS011;12250;50.956;4.746;2023-06-22T12:49:34;1.25;;;1.10;;
24048;SDS011;12250;50.956;4.746;2023-06-22T12:52:00;1.05;;;1.05;;
24048;SDS011;12250;50.956;4.746;2023-06-22T12:54:26;2.30;;;2.10;;
24048;SDS011;12250;50.956;4.746;2023-06-22T12:56:53;2.30;;;2.10;;
24048;SDS011;12250;50.956;4.746;2023-06-22T12:59:19;2.90;;;2.70;;
24048;SDS011;12250;50.956;4.746;2023-06-22T13:01:44;2.75;;;2.22;;
24048;SDS011;12250;50.956;4.746;2023-06-22T13:04:11;3.05;;;2.60;;
24048;SDS011;12250;50.956;4.746;2023-06-22T13:06:39;3.53;;;3.20;;
24048;SDS011;12250;50.956;4.746;2023-06-22T13:09:09;2.95;;;2.05;;
24048;SDS011;12250;50.956;4.746;2023-06-22T13:11:35;1.23;;;1.23;;
24048;SDS011;12250;50.956;4.746;2023-06-22T13:14:01;4.80;;;3.08;;
24048;SDS011;12250;50.956;4.746;2023-06-22T13:16:26;1.63;;;1.42;;
24048;SDS011;12250;50.956;4.746;2023-06-22T13:18:52;4.30;;;2.53;;
24048;SDS011;12250;50.956;4.746;2023-06-22T13:21:17;5.30;;;1.90;;
24048;SDS011;12250;50.956;4.746;2023-06-22T13:23:43;1.83;;;1.73;;
24048;SDS011;12250;50.956;4.746;2023-06-22T13:26:09;1.83;;;1.73;;
24048;SDS011;12250;50.956;4.746;2023-06-22T13:28:34;3.05;;;2.65;;
24048;SDS011;12250;50.956;4.746;2023-06-22T13:31:00;3.80;;;3.35;;
24048;SDS011;12250;50.956;4.746;2023-06-22T13:33:26;1.73;;;1.63;;
24048;SDS011;12250;50.956;4.746;2023-06-22T13:35:51;4.38;;;2.22;;
24048;SDS011;12250;50.956;4.746;2023-06-22T13:38:17;2.33;;;2.03;;
24048;SDS011;12250;50.956;4.746;2023-06-22T13:40:43;1.23;;;1.13;;
24048;SDS011;12250;50.956;4.746;2023-06-22T13:43:08;1.10;;;1.10;;
24048;SDS011;12250;50.956;4.746;2023-06-22T13:45:34;1.23;;;1.13;;
24048;SDS011;12250;50.956;4.746;2023-06-22T13:48:00;1.15;;;1.15;;
24048;SDS011;12250;50.956;4.746;2023-06-22T13:50:26;2.13;;;2.03;;
24048;SDS011;12250;50.956;4.746;2023-06-22T13:52:51;5.10;;;1.63;;
24048;SDS011;12250;50.956;4.746;2023-06-22T13:55:17;1.42;;;1.35;;
24048;SDS011;12250;50.956;4.746;2023-06-22T13:57:45;2.17;;;1.98;;
24048;SDS011;12250;50.956;4.746;2023-06-22T14:00:10;1.42;;;1.20;;
24048;SDS011;12250;50.956;4.746;2023-06-22T14:02:40;1.85;;;1.75;;
24048;SDS011;12250;50.956;4.746;2023-06-22T14:05:06;3.30;;;3.10;;
24048;SDS011;12250;50.956;4.746;2023-06-22T14:07:32;1.80;;;1.48;;
24048;SDS011;12250;50.956;4.746;2023-06-22T14:09:59;4.57;;;2.50;;
24048;SDS011;12250;50.956;4.746;2023-06-22T14:12:25;1.17;;;1.15;;
24048;SDS011;12250;50.956;4.746;2023-06-22T14:14:51;1.67;;;1.58;;
24048;SDS011;12250;50.956;4.746;2023-06-22T14:17:17;2.92;;;2.22;;
24048;SDS011;12250;50.956;4.746;2023-06-22T14:19:48;1.92;;;1.55;;
24048;SDS011;12250;50.956;4.746;2023-06-22T14:22:15;3.17;;;1.60;;
24048;SDS011;12250;50.956;4.746;2023-06-22T14:24:40;2.03;;;1.73;;
24048;SDS011;12250;50.956;4.746;2023-06-22T14:27:06;2.08;;;1.02;;
24048;SDS011;12250;50.956;4.746;2023-06-22T14:29:33;1.90;;;1.02;;
24048;SDS011;12250;50.956;4.746;2023-06-22T14:31:59;2.97;;;2.78;;
24048;SDS011;12250;50.956;4.746;2023-06-22T14:34:25;1.08;;;1.05;;
24048;SDS011;12250;50.956;4.746;2023-06-22T14:36:51;2.20;;;2.03;;
24048;SDS011;12250;50.956;4.746;2023-06-22T14:39:16;4.40;;;1.88;;
24048;SDS011;12250;50.956;4.746;2023-06-22T14:41:42;1.17;;;1.10;;
24048;SDS011;12250;50.956;4.746;2023-06-22T14:44:07;2.50;;;2.25;;
24048;SDS011;12250;50.956;4.746;2023-06-22T14:46:33;1.23;;;1.15;;
24048;SDS011;12250;50.956;4.746;2023-06-22T14:48:59;1.20;;;1.20;;
24048;SDS011;12250;50.956;4.746;2023-06-22T14:51:24;1.33;;;1.23;;